sensor_id;sensor_type;location;lat;lon;timestamp;P1;durP1;ratioP1;P2;durP2;ratioP2
55815;SDS011;41744;52.404;16.942;2023-02-28T00:02:18;33.53;;;10.90;;
55815;SDS011;41744;52.404;16.942;2023-02-28T00:04:44;39.27;;;11.40;;
55815;SDS011;41744;52.404;16.942;2023-02-28T00:07:17;35.00;;;11.27;;
55815;SDS011;41744;52.404;16.942;2023-02-28T00:09:43;39.57;;;12.60;;
55815;SDS011;41744;52.404;16.942;2023-02-28T00:12:09;38.13;;;12.87;;
55815;SDS011;41744;52.404;16.942;2023-02-28T00:14:36;40.37;;;12.10;;
55815;SDS011;41744;52.404;16.942;2023-02-28T00:17:02;32.43;;;11.53;;
55815;SDS011;41744;52.404;16.942;2023-02-28T00:19:28;36.17;;;10.57;;
55815;SDS011;41744;52.404;16.942;2023-02-28T00:21:54;31.83;;;11.10;;
55815;SDS011;41744;52.404;16.942;2023-02-28T00:24:20;29.50;;;10.67;;
55815;SDS011;41744;52.404;16.942;2023-02-28T00:26:46;34.13;;;11.30;;
55815;SDS011;41744;52.404;16.942;2023-02-28T00:29:12;34.50;;;11.67;;
55815;SDS011;41744;52.404;16.942;2023-02-28T00:31:38;37.37;;;12.03;;
55815;SDS011;41744;52.404;16.942;2023-02-28T00:34:04;34.80;;;10.90;;
55815;SDS011;41744;52.404;16.942;2023-02-28T00:36:30;34.73;;;11.90;;
55815;SDS011;41744;52.404;16.942;2023-02-28T00:38:56;31.77;;;11.10;;
55815;SDS011;41744;52.404;16.942;2023-02-28T00:41:22;30.93;;;10.93;;
55815;SDS011;41744;52.404;16.942;2023-02-28T00:43:48;34.50;;;12.23;;
55815;SDS011;41744;52.404;16.942;2023-02-28T00:46:14;37.97;;;12.33;;
55815;SDS011;41744;52.404;16.942;2023-02-28T00:48:40;36.17;;;12.43;;
55815;SDS011;41744;52.404;16.942;2023-02-28T00:51:06;34.07;;;11.93;;
55815;SDS011;41744;52.404;16.942;2023-02-28T00:53:32;34.27;;;11.60;;
55815;SDS011;41744;52.404;16.942;2023-02-28T00:55:59;40.60;;;13.07;;
55815;SDS011;41744;52.404;16.942;2023-02-28T00:58:25;42.93;;;13.10;;
55815;SDS011;41744;52.404;16.942;2023-02-28T01:00:51;35.87;;;12.50;;
55815;SDS011;41744;52.404;16.942;2023-02-28T01:03:18;39.60;;;13.83;;
55815;SDS011;41744;52.404;16.942;2023-02-28T01:05:45;40.43;;;13.17;;
55815;SDS011;41744;52.404;16.942;2023-02-28T01:08:11;37.63;;;12.60;;
55815;SDS011;41744;52.404;16.942;2023-02-28T01:10:38;41.57;;;12.67;;
55815;SDS011;41744;52.404;16.942;2023-02-28T01:13:04;40.17;;;12.53;;
55815;SDS011;41744;52.404;16.942;2023-02-28T01:15:31;40.23;;;13.43;;
55815;SDS011;41744;52.404;16.942;2023-02-28T01:17:57;37.17;;;12.30;;
55815;SDS011;41744;52.404;16.942;2023-02-28T01:20:23;39.10;;;13.07;;
55815;SDS011;41744;52.404;16.942;2023-02-28T01:22:49;45.97;;;12.90;;
55815;SDS011;41744;52.404;16.942;2023-02-28T01:25:15;40.23;;;13.20;;
55815;SDS011;41744;52.404;16.942;2023-02-28T01:27:41;51.03;;;14.03;;
55815;SDS011;41744;52.404;16.942;2023-02-28T01:30:08;39.63;;;13.60;;
55815;SDS011;41744;52.404;16.942;2023-02-28T01:32:35;38.97;;;12.83;;
55815;SDS011;41744;52.404;16.942;2023-02-28T01:35:01;42.37;;;12.60;;
55815;SDS011;41744;52.404;16.942;2023-02-28T01:37:27;39.07;;;13.23;;
55815;SDS011;41744;52.404;16.942;2023-02-28T01:39:53;39.27;;;13.47;;
55815;SDS011;41744;52.404;16.942;2023-02-28T01:42:19;44.97;;;13.13;;
55815;SDS011;41744;52.404;16.942;2023-02-28T01:47:24;40.73;;;12.73;;
55815;SDS011;41744;52.404;16.942;2023-02-28T01:49:51;41.37;;;12.40;;
55815;SDS011;41744;52.404;16.942;2023-02-28T01:52:18;42.23;;;12.33;;
55815;SDS011;41744;52.404;16.942;2023-02-28T01:54:45;39.50;;;12.43;;
55815;SDS011;41744;52.404;16.942;2023-02-28T01:57:14;39.03;;;11.83;;
55815;SDS011;41744;52.404;16.942;2023-02-28T01:59:43;36.17;;;12.57;;
55815;SDS011;41744;52.404;16.942;2023-02-28T02:02:17;37.13;;;12.57;;
55815;SDS011;41744;52.404;16.942;2023-02-28T02:04:50;36.47;;;11.40;;
55815;SDS011;41744;52.404;16.942;2023-02-28T02:07:17;32.37;;;11.50;;
55815;SDS011;41744;52.404;16.942;2023-02-28T02:09:43;36.33;;;11.77;;
55815;SDS011;41744;52.404;16.942;2023-02-28T02:12:24;39.93;;;12.17;;
55815;SDS011;41744;52.404;16.942;2023-02-28T02:15:08;38.07;;;11.67;;
55815;SDS011;41744;52.404;16.942;2023-02-28T02:17:48;34.87;;;11.67;;
55815;SDS011;41744;52.404;16.942;2023-02-28T02:20:27;33.63;;;11.60;;
55815;SDS011;41744;52.404;16.942;2023-02-28T02:25:47;33.93;;;11.17;;
55815;SDS011;41744;52.404;16.942;2023-02-28T02:31:06;29.00;;;10.87;;
55815;SDS011;41744;52.404;16.942;2023-02-28T02:36:14;39.40;;;11.17;;
55815;SDS011;41744;52.404;16.942;2023-02-28T02:43:40;48.70;;;12.27;;
55815;SDS011;41744;52.404;16.942;2023-02-28T02:46:11;33.73;;;12.00;;
55815;SDS011;41744;52.404;16.942;2023-02-28T02:48:38;34.43;;;11.67;;
55815;SDS011;41744;52.404;16.942;2023-02-28T02:51:07;36.80;;;12.57;;
55815;SDS011;41744;52.404;16.942;2023-02-28T02:54:00;30.03;;;12.03;;
55815;SDS011;41744;52.404;16.942;2023-02-28T02:56:24;34.87;;;12.93;;
55815;SDS011;41744;52.404;16.942;2023-02-28T02:58:51;32.30;;;11.53;;
55815;SDS011;41744;52.404;16.942;2023-02-28T03:01:20;38.23;;;12.77;;
55815;SDS011;41744;52.404;16.942;2023-02-28T03:03:53;34.77;;;12.40;;
55815;SDS011;41744;52.404;16.942;2023-02-28T03:06:20;32.27;;;12.60;;
55815;SDS011;41744;52.404;16.942;2023-02-28T03:08:46;33.53;;;12.63;;
55815;SDS011;41744;52.404;16.942;2023-02-28T03:11:13;40.17;;;12.37;;
55815;SDS011;41744;52.404;16.942;2023-02-28T03:24:18;37.00;;;11.63;;
55815;SDS011;41744;52.404;16.942;2023-02-28T03:26:47;41.80;;;13.07;;
55815;SDS011;41744;52.404;16.942;2023-02-28T03:29:35;41.77;;;13.27;;
55815;SDS011;41744;52.404;16.942;2023-02-28T03:32:04;37.97;;;12.90;;
55815;SDS011;41744;52.404;16.942;2023-02-28T03:34:38;41.17;;;13.50;;
55815;SDS011;41744;52.404;16.942;2023-02-28T03:37:10;41.80;;;12.30;;
55815;SDS011;41744;52.404;16.942;2023-02-28T03:39:39;39.90;;;13.20;;
55815;SDS011;41744;52.404;16.942;2023-02-28T03:42:14;36.73;;;11.87;;
55815;SDS011;41744;52.404;16.942;2023-02-28T03:47:10;42.07;;;13.47;;
55815;SDS011;41744;52.404;16.942;2023-02-28T03:49:43;35.60;;;13.33;;
55815;SDS011;41744;52.404;16.942;2023-02-28T03:52:10;40.00;;;12.83;;
55815;SDS011;41744;52.404;16.942;2023-02-28T03:54:48;34.90;;;13.20;;
55815;SDS011;41744;52.404;16.942;2023-02-28T03:59:59;47.00;;;13.63;;
55815;SDS011;41744;52.404;16.942;2023-02-28T04:02:30;40.47;;;12.80;;
55815;SDS011;41744;52.404;16.942;2023-02-28T04:04:56;40.10;;;13.50;;
55815;SDS011;41744;52.404;16.942;2023-02-28T04:07:24;41.13;;;13.03;;
55815;SDS011;41744;52.404;16.942;2023-02-28T04:09:50;42.80;;;13.63;;
55815;SDS011;41744;52.404;16.942;2023-02-28T04:12:17;41.30;;;12.43;;
55815;SDS011;41744;52.404;16.942;2023-02-28T04:14:43;38.53;;;13.87;;
55815;SDS011;41744;52.404;16.942;2023-02-28T04:17:09;39.03;;;12.80;;
55815;SDS011;41744;52.404;16.942;2023-02-28T04:19:35;48.20;;;14.13;;
55815;SDS011;41744;52.404;16.942;2023-02-28T04:22:01;37.97;;;12.77;;
55815;SDS011;41744;52.404;16.942;2023-02-28T04:24:27;39.07;;;13.17;;
55815;SDS011;41744;52.404;16.942;2023-02-28T04:26:54;39.97;;;13.13;;
55815;SDS011;41744;52.404;16.942;2023-02-28T04:29:24;40.37;;;13.20;;
55815;SDS011;41744;52.404;16.942;2023-02-28T04:31:51;42.27;;;12.73;;
55815;SDS011;41744;52.404;16.942;2023-02-28T04:34:24;39.90;;;13.40;;
55815;SDS011;41744;52.404;16.942;2023-02-28T04:36:50;36.30;;;13.27;;
55815;SDS011;41744;52.404;16.942;2023-02-28T04:39:19;37.27;;;12.30;;
55815;SDS011;41744;52.404;16.942;2023-02-28T04:41:45;35.20;;;12.47;;
55815;SDS011;41744;52.404;16.942;2023-02-28T04:44:11;39.17;;;12.03;;
55815;SDS011;41744;52.404;16.942;2023-02-28T04:46:37;34.43;;;12.87;;
55815;SDS011;41744;52.404;16.942;2023-02-28T04:49:04;41.67;;;13.13;;
55815;SDS011;41744;52.404;16.942;2023-02-28T04:51:30;37.93;;;13.13;;
55815;SDS011;41744;52.404;16.942;2023-02-28T04:53:56;39.97;;;12.77;;
55815;SDS011;41744;52.404;16.942;2023-02-28T04:56:22;37.63;;;12.67;;
55815;SDS011;41744;52.404;16.942;2023-02-28T04:58:48;43.87;;;13.53;;
55815;SDS011;41744;52.404;16.942;2023-02-28T05:03:44;42.57;;;12.93;;
55815;SDS011;41744;52.404;16.942;2023-02-28T05:06:11;35.37;;;12.63;;
55815;SDS011;41744;52.404;16.942;2023-02-28T05:08:37;37.70;;;12.80;;
55815;SDS011;41744;52.404;16.942;2023-02-28T05:11:03;43.20;;;13.13;;
55815;SDS011;41744;52.404;16.942;2023-02-28T05:13:30;41.00;;;12.77;;
55815;SDS011;41744;52.404;16.942;2023-02-28T05:15:56;31.20;;;12.17;;
55815;SDS011;41744;52.404;16.942;2023-02-28T05:18:22;39.23;;;12.43;;
55815;SDS011;41744;52.404;16.942;2023-02-28T05:20:48;42.40;;;13.03;;
55815;SDS011;41744;52.404;16.942;2023-02-28T05:23:14;35.87;;;12.53;;
55815;SDS011;41744;52.404;16.942;2023-02-28T05:25:40;38.87;;;12.87;;
55815;SDS011;41744;52.404;16.942;2023-02-28T05:28:06;39.20;;;12.97;;
55815;SDS011;41744;52.404;16.942;2023-02-28T05:30:33;36.57;;;12.40;;
55815;SDS011;41744;52.404;16.942;2023-02-28T05:32:59;37.13;;;12.97;;
55815;SDS011;41744;52.404;16.942;2023-02-28T05:35:25;33.87;;;12.33;;
55815;SDS011;41744;52.404;16.942;2023-02-28T05:37:51;38.20;;;12.43;;
55815;SDS011;41744;52.404;16.942;2023-02-28T05:40:18;39.47;;;12.80;;
55815;SDS011;41744;52.404;16.942;2023-02-28T05:42:47;37.90;;;12.33;;
55815;SDS011;41744;52.404;16.942;2023-02-28T05:45:13;34.37;;;12.33;;
55815;SDS011;41744;52.404;16.942;2023-02-28T05:47:39;39.43;;;11.17;;
55815;SDS011;41744;52.404;16.942;2023-02-28T05:50:05;36.63;;;12.03;;
55815;SDS011;41744;52.404;16.942;2023-02-28T05:52:31;32.67;;;11.63;;
55815;SDS011;41744;52.404;16.942;2023-02-28T05:54:57;40.10;;;11.63;;
55815;SDS011;41744;52.404;16.942;2023-02-28T05:57:24;35.10;;;11.67;;
55815;SDS011;41744;52.404;16.942;2023-02-28T05:59:50;40.63;;;12.60;;
55815;SDS011;41744;52.404;16.942;2023-02-28T06:02:17;31.93;;;11.00;;
55815;SDS011;41744;52.404;16.942;2023-02-28T06:04:43;35.07;;;12.10;;
55815;SDS011;41744;52.404;16.942;2023-02-28T06:07:09;41.00;;;12.93;;
55815;SDS011;41744;52.404;16.942;2023-02-28T06:09:36;40.47;;;13.00;;
55815;SDS011;41744;52.404;16.942;2023-02-28T06:12:03;39.20;;;12.57;;
55815;SDS011;41744;52.404;16.942;2023-02-28T06:14:30;36.90;;;12.20;;
55815;SDS011;41744;52.404;16.942;2023-02-28T06:16:57;37.00;;;12.43;;
55815;SDS011;41744;52.404;16.942;2023-02-28T06:19:23;33.83;;;10.80;;
55815;SDS011;41744;52.404;16.942;2023-02-28T06:21:53;34.17;;;12.03;;
55815;SDS011;41744;52.404;16.942;2023-02-28T06:24:20;35.20;;;11.03;;
55815;SDS011;41744;52.404;16.942;2023-02-28T06:26:46;31.77;;;12.00;;
55815;SDS011;41744;52.404;16.942;2023-02-28T06:29:12;43.40;;;13.77;;
55815;SDS011;41744;52.404;16.942;2023-02-28T06:31:42;37.70;;;12.47;;
55815;SDS011;41744;52.404;16.942;2023-02-28T06:34:12;37.40;;;13.60;;
55815;SDS011;41744;52.404;16.942;2023-02-28T06:36:38;34.13;;;13.07;;
55815;SDS011;41744;52.404;16.942;2023-02-28T06:39:05;42.13;;;14.63;;
55815;SDS011;41744;52.404;16.942;2023-02-28T06:41:31;33.37;;;12.90;;
55815;SDS011;41744;52.404;16.942;2023-02-28T06:44:21;42.67;;;13.97;;
55815;SDS011;41744;52.404;16.942;2023-02-28T06:46:47;35.37;;;12.33;;
55815;SDS011;41744;52.404;16.942;2023-02-28T06:49:13;33.27;;;12.87;;
55815;SDS011;41744;52.404;16.942;2023-02-28T06:51:40;31.10;;;11.77;;
55815;SDS011;41744;52.404;16.942;2023-02-28T06:54:07;35.77;;;12.20;;
55815;SDS011;41744;52.404;16.942;2023-02-28T06:56:34;31.93;;;11.80;;
55815;SDS011;41744;52.404;16.942;2023-02-28T06:59:00;34.53;;;12.70;;
55815;SDS011;41744;52.404;16.942;2023-02-28T07:01:26;32.53;;;12.67;;
55815;SDS011;41744;52.404;16.942;2023-02-28T07:03:53;35.43;;;12.57;;
55815;SDS011;41744;52.404;16.942;2023-02-28T07:06:19;30.03;;;12.23;;
55815;SDS011;41744;52.404;16.942;2023-02-28T07:08:47;32.10;;;12.30;;
55815;SDS011;41744;52.404;16.942;2023-02-28T07:11:13;35.43;;;12.10;;
55815;SDS011;41744;52.404;16.942;2023-02-28T07:13:39;38.73;;;13.53;;
55815;SDS011;41744;52.404;16.942;2023-02-28T07:16:07;39.50;;;13.57;;
55815;SDS011;41744;52.404;16.942;2023-02-28T07:18:33;36.13;;;14.03;;
55815;SDS011;41744;52.404;16.942;2023-02-28T07:21:03;35.37;;;14.30;;
55815;SDS011;41744;52.404;16.942;2023-02-28T07:23:29;38.30;;;13.40;;
55815;SDS011;41744;52.404;16.942;2023-02-28T07:25:55;36.43;;;14.03;;
55815;SDS011;41744;52.404;16.942;2023-02-28T07:28:21;40.37;;;13.67;;
55815;SDS011;41744;52.404;16.942;2023-02-28T07:30:48;36.73;;;13.93;;
55815;SDS011;41744;52.404;16.942;2023-02-28T07:33:14;38.70;;;14.60;;
55815;SDS011;41744;52.404;16.942;2023-02-28T07:35:40;36.53;;;13.53;;
55815;SDS011;41744;52.404;16.942;2023-02-28T07:38:06;35.93;;;13.33;;
55815;SDS011;41744;52.404;16.942;2023-02-28T07:40:33;36.85;;;13.30;;
55815;SDS011;41744;52.404;16.942;2023-02-28T07:43:00;37.67;;;14.10;;
55815;SDS011;41744;52.404;16.942;2023-02-28T07:45:26;40.70;;;14.03;;
55815;SDS011;41744;52.404;16.942;2023-02-28T07:47:54;39.23;;;14.57;;
55815;SDS011;41744;52.404;16.942;2023-02-28T07:50:20;37.00;;;15.03;;
55815;SDS011;41744;52.404;16.942;2023-02-28T07:52:46;40.33;;;14.73;;
55815;SDS011;41744;52.404;16.942;2023-02-28T07:55:12;43.70;;;14.73;;
55815;SDS011;41744;52.404;16.942;2023-02-28T07:57:39;40.00;;;14.83;;
55815;SDS011;41744;52.404;16.942;2023-02-28T08:00:05;35.03;;;14.50;;
55815;SDS011;41744;52.404;16.942;2023-02-28T08:02:32;43.93;;;15.27;;
55815;SDS011;41744;52.404;16.942;2023-02-28T08:04:59;37.37;;;14.83;;
55815;SDS011;41744;52.404;16.942;2023-02-28T08:07:25;33.73;;;14.03;;
55815;SDS011;41744;52.404;16.942;2023-02-28T08:09:51;35.03;;;14.33;;
55815;SDS011;41744;52.404;16.942;2023-02-28T08:12:17;38.53;;;14.10;;
55815;SDS011;41744;52.404;16.942;2023-02-28T08:14:43;35.03;;;14.60;;
55815;SDS011;41744;52.404;16.942;2023-02-28T08:17:10;36.23;;;14.00;;
55815;SDS011;41744;52.404;16.942;2023-02-28T08:19:36;34.57;;;13.87;;
55815;SDS011;41744;52.404;16.942;2023-02-28T08:22:02;36.53;;;13.20;;
55815;SDS011;41744;52.404;16.942;2023-02-28T08:24:28;33.47;;;12.43;;
55815;SDS011;41744;52.404;16.942;2023-02-28T08:26:54;32.20;;;12.07;;
55815;SDS011;41744;52.404;16.942;2023-02-28T08:29:21;35.87;;;13.90;;
55815;SDS011;41744;52.404;16.942;2023-02-28T08:31:47;33.10;;;13.43;;
55815;SDS011;41744;52.404;16.942;2023-02-28T08:34:13;29.80;;;12.67;;
55815;SDS011;41744;52.404;16.942;2023-02-28T08:36:40;33.33;;;12.03;;
55815;SDS011;41744;52.404;16.942;2023-02-28T08:39:07;36.97;;;13.20;;
55815;SDS011;41744;52.404;16.942;2023-02-28T08:41:33;35.83;;;12.80;;
55815;SDS011;41744;52.404;16.942;2023-02-28T08:44:00;29.70;;;12.40;;
55815;SDS011;41744;52.404;16.942;2023-02-28T08:46:26;30.67;;;12.73;;
55815;SDS011;41744;52.404;16.942;2023-02-28T08:48:53;31.50;;;13.17;;
55815;SDS011;41744;52.404;16.942;2023-02-28T08:51:20;30.27;;;13.00;;
55815;SDS011;41744;52.404;16.942;2023-02-28T08:53:51;31.60;;;12.43;;
55815;SDS011;41744;52.404;16.942;2023-02-28T08:56:17;31.67;;;12.87;;
55815;SDS011;41744;52.404;16.942;2023-02-28T08:58:44;33.40;;;13.53;;
55815;SDS011;41744;52.404;16.942;2023-02-28T09:01:21;38.07;;;14.30;;
55815;SDS011;41744;52.404;16.942;2023-02-28T09:03:48;33.80;;;13.43;;
55815;SDS011;41744;52.404;16.942;2023-02-28T09:06:14;32.23;;;13.73;;
55815;SDS011;41744;52.404;16.942;2023-02-28T09:08:41;34.53;;;13.40;;
55815;SDS011;41744;52.404;16.942;2023-02-28T09:11:07;37.70;;;13.63;;
55815;SDS011;41744;52.404;16.942;2023-02-28T09:13:34;37.07;;;14.03;;
55815;SDS011;41744;52.404;16.942;2023-02-28T09:16:00;37.40;;;13.90;;
55815;SDS011;41744;52.404;16.942;2023-02-28T09:18:27;39.43;;;14.43;;
55815;SDS011;41744;52.404;16.942;2023-02-28T09:20:53;27.77;;;10.97;;
55815;SDS011;41744;52.404;16.942;2023-02-28T09:23:19;22.20;;;9.83;;
55815;SDS011;41744;52.404;16.942;2023-02-28T09:25:46;29.63;;;11.10;;
55815;SDS011;41744;52.404;16.942;2023-02-28T09:28:13;27.00;;;10.40;;
55815;SDS011;41744;52.404;16.942;2023-02-28T09:30:41;27.50;;;10.53;;
55815;SDS011;41744;52.404;16.942;2023-02-28T09:33:07;26.83;;;10.27;;
55815;SDS011;41744;52.404;16.942;2023-02-28T09:35:33;30.10;;;11.33;;
55815;SDS011;41744;52.404;16.942;2023-02-28T09:37:59;27.63;;;10.83;;
55815;SDS011;41744;52.404;16.942;2023-02-28T09:40:27;26.63;;;10.43;;
55815;SDS011;41744;52.404;16.942;2023-02-28T09:42:54;25.00;;;10.27;;
55815;SDS011;41744;52.404;16.942;2023-02-28T09:45:24;21.93;;;9.10;;
55815;SDS011;41744;52.404;16.942;2023-02-28T09:47:53;26.13;;;9.30;;
55815;SDS011;41744;52.404;16.942;2023-02-28T09:50:29;20.87;;;8.80;;
55815;SDS011;41744;52.404;16.942;2023-02-28T09:52:57;22.73;;;8.90;;
55815;SDS011;41744;52.404;16.942;2023-02-28T09:55:32;23.97;;;9.80;;
55815;SDS011;41744;52.404;16.942;2023-02-28T09:57:59;23.30;;;9.80;;
55815;SDS011;41744;52.404;16.942;2023-02-28T10:03:15;23.83;;;9.10;;
55815;SDS011;41744;52.404;16.942;2023-02-28T10:06:22;19.57;;;8.40;;
55815;SDS011;41744;52.404;16.942;2023-02-28T10:08:50;21.20;;;8.30;;
55815;SDS011;41744;52.404;16.942;2023-02-28T10:11:18;21.73;;;8.40;;
55815;SDS011;41744;52.404;16.942;2023-02-28T10:13:48;19.73;;;8.53;;
55815;SDS011;41744;52.404;16.942;2023-02-28T10:18:52;17.10;;;7.40;;
55815;SDS011;41744;52.404;16.942;2023-02-28T10:21:24;17.07;;;6.57;;
55815;SDS011;41744;52.404;16.942;2023-02-28T10:23:53;15.63;;;6.00;;
55815;SDS011;41744;52.404;16.942;2023-02-28T10:26:21;14.03;;;4.80;;
55815;SDS011;41744;52.404;16.942;2023-02-28T10:28:49;16.43;;;6.63;;
55815;SDS011;41744;52.404;16.942;2023-02-28T10:31:17;16.23;;;6.23;;
55815;SDS011;41744;52.404;16.942;2023-02-28T10:33:44;10.97;;;5.03;;
55815;SDS011;41744;52.404;16.942;2023-02-28T10:36:12;16.80;;;5.57;;
55815;SDS011;41744;52.404;16.942;2023-02-28T10:38:39;19.40;;;6.20;;
55815;SDS011;41744;52.404;16.942;2023-02-28T10:41:10;15.80;;;5.80;;
55815;SDS011;41744;52.404;16.942;2023-02-28T10:43:37;15.03;;;6.43;;
55815;SDS011;41744;52.404;16.942;2023-02-28T10:46:04;15.83;;;6.13;;
55815;SDS011;41744;52.404;16.942;2023-02-28T10:51:00;18.43;;;7.30;;
55815;SDS011;41744;52.404;16.942;2023-02-28T10:53:30;16.37;;;7.20;;
55815;SDS011;41744;52.404;16.942;2023-02-28T10:55:58;17.70;;;6.90;;
55815;SDS011;41744;52.404;16.942;2023-02-28T10:58:27;15.43;;;6.63;;
55815;SDS011;41744;52.404;16.942;2023-02-28T11:00:53;18.13;;;6.50;;
55815;SDS011;41744;52.404;16.942;2023-02-28T11:03:29;15.03;;;6.10;;
55815;SDS011;41744;52.404;16.942;2023-02-28T11:05:56;20.87;;;7.53;;
55815;SDS011;41744;52.404;16.942;2023-02-28T11:08:22;18.57;;;7.60;;
55815;SDS011;41744;52.404;16.942;2023-02-28T11:10:58;22.33;;;7.50;;
55815;SDS011;41744;52.404;16.942;2023-02-28T11:13:35;21.30;;;7.73;;
55815;SDS011;41744;52.404;16.942;2023-02-28T11:16:09;17.63;;;6.90;;
55815;SDS011;41744;52.404;16.942;2023-02-28T11:18:49;17.93;;;7.37;;
55815;SDS011;41744;52.404;16.942;2023-02-28T11:21:19;17.53;;;7.17;;
55815;SDS011;41744;52.404;16.942;2023-02-28T11:23:46;18.23;;;8.07;;
55815;SDS011;41744;52.404;16.942;2023-02-28T11:26:14;19.47;;;7.63;;
55815;SDS011;41744;52.404;16.942;2023-02-28T11:28:41;18.00;;;7.77;;
55815;SDS011;41744;52.404;16.942;2023-02-28T11:33:47;14.73;;;7.07;;
55815;SDS011;41744;52.404;16.942;2023-02-28T11:36:22;15.90;;;6.93;;
55815;SDS011;41744;52.404;16.942;2023-02-28T11:38:52;17.27;;;7.37;;
55815;SDS011;41744;52.404;16.942;2023-02-28T11:48:49;21.97;;;6.83;;
55815;SDS011;41744;52.404;16.942;2023-02-28T11:56:23;17.10;;;7.47;;
55815;SDS011;41744;52.404;16.942;2023-02-28T12:04:32;15.53;;;6.80;;
55815;SDS011;41744;52.404;16.942;2023-02-28T12:25:21;12.00;;;5.50;;
55815;SDS011;41744;52.404;16.942;2023-02-28T12:27:50;14.93;;;4.63;;
55815;SDS011;41744;52.404;16.942;2023-02-28T12:30:22;10.40;;;4.80;;
55815;SDS011;41744;52.404;16.942;2023-02-28T12:33:12;27.03;;;5.47;;
55815;SDS011;41744;52.404;16.942;2023-02-28T12:35:37;16.33;;;4.83;;
55815;SDS011;41744;52.404;16.942;2023-02-28T12:38:12;11.73;;;4.37;;
55815;SDS011;41744;52.404;16.942;2023-02-28T12:43:09;12.97;;;4.50;;
55815;SDS011;41744;52.404;16.942;2023-02-28T12:45:44;11.17;;;4.53;;
55815;SDS011;41744;52.404;16.942;2023-02-28T12:48:14;13.83;;;3.93;;
55815;SDS011;41744;52.404;16.942;2023-02-28T12:50:41;14.77;;;3.80;;
55815;SDS011;41744;52.404;16.942;2023-02-28T12:53:28;8.87;;;3.50;;
55815;SDS011;41744;52.404;16.942;2023-02-28T12:56:00;9.47;;;3.97;;
55815;SDS011;41744;52.404;16.942;2023-02-28T12:58:31;15.40;;;4.20;;
55815;SDS011;41744;52.404;16.942;2023-02-28T13:10:59;13.77;;;4.03;;
55815;SDS011;41744;52.404;16.942;2023-02-28T13:13:29;10.27;;;4.30;;
55815;SDS011;41744;52.404;16.942;2023-02-28T13:16:17;15.50;;;5.40;;
55815;SDS011;41744;52.404;16.942;2023-02-28T13:18:43;11.87;;;4.97;;
55815;SDS011;41744;52.404;16.942;2023-02-28T13:21:32;11.77;;;4.90;;
55815;SDS011;41744;52.404;16.942;2023-02-28T13:23:58;13.50;;;4.70;;
55815;SDS011;41744;52.404;16.942;2023-02-28T13:29:00;8.27;;;4.03;;
55815;SDS011;41744;52.404;16.942;2023-02-28T13:31:27;10.80;;;4.17;;
55815;SDS011;41744;52.404;16.942;2023-02-28T13:36:24;9.43;;;4.30;;
55815;SDS011;41744;52.404;16.942;2023-02-28T13:38:52;15.27;;;5.07;;
55815;SDS011;41744;52.404;16.942;2023-02-28T13:46:26;13.30;;;4.77;;
55815;SDS011;41744;52.404;16.942;2023-02-28T13:48:53;12.10;;;4.67;;
55815;SDS011;41744;52.404;16.942;2023-02-28T13:51:37;10.77;;;4.60;;
55815;SDS011;41744;52.404;16.942;2023-02-28T13:54:16;9.93;;;4.07;;
55815;SDS011;41744;52.404;16.942;2023-02-28T13:56:51;8.60;;;4.17;;
55815;SDS011;41744;52.404;16.942;2023-02-28T13:59:54;9.00;;;3.90;;
55815;SDS011;41744;52.404;16.942;2023-02-28T14:07:15;9.23;;;3.77;;
55815;SDS011;41744;52.404;16.942;2023-02-28T14:09:45;7.33;;;3.30;;
55815;SDS011;41744;52.404;16.942;2023-02-28T14:14:57;7.23;;;3.60;;
55815;SDS011;41744;52.404;16.942;2023-02-28T14:17:23;8.60;;;3.80;;
55815;SDS011;41744;52.404;16.942;2023-02-28T14:19:50;9.07;;;3.73;;
55815;SDS011;41744;52.404;16.942;2023-02-28T14:22:22;9.50;;;3.43;;
55815;SDS011;41744;52.404;16.942;2023-02-28T14:27:45;10.57;;;3.73;;
55815;SDS011;41744;52.404;16.942;2023-02-28T14:30:29;8.47;;;3.80;;
55815;SDS011;41744;52.404;16.942;2023-02-28T14:35:50;9.83;;;3.87;;
55815;SDS011;41744;52.404;16.942;2023-02-28T14:38:20;7.90;;;3.60;;
55815;SDS011;41744;52.404;16.942;2023-02-28T14:40:48;10.67;;;3.77;;
55815;SDS011;41744;52.404;16.942;2023-02-28T14:43:25;9.90;;;4.20;;
55815;SDS011;41744;52.404;16.942;2023-02-28T14:45:52;13.53;;;4.43;;
55815;SDS011;41744;52.404;16.942;2023-02-28T14:48:19;13.97;;;4.40;;
55815;SDS011;41744;52.404;16.942;2023-02-28T14:50:51;10.80;;;4.30;;
55815;SDS011;41744;52.404;16.942;2023-02-28T14:53:18;14.30;;;5.10;;
55815;SDS011;41744;52.404;16.942;2023-02-28T14:55:45;14.57;;;5.17;;
55815;SDS011;41744;52.404;16.942;2023-02-28T15:00:51;12.00;;;5.50;;
55815;SDS011;41744;52.404;16.942;2023-02-28T15:03:28;11.07;;;4.90;;
55815;SDS011;41744;52.404;16.942;2023-02-28T15:05:56;12.50;;;4.23;;
55815;SDS011;41744;52.404;16.942;2023-02-28T15:08:23;13.97;;;4.70;;
55815;SDS011;41744;52.404;16.942;2023-02-28T15:10:54;12.73;;;4.77;;
55815;SDS011;41744;52.404;16.942;2023-02-28T15:13:21;13.17;;;4.43;;
55815;SDS011;41744;52.404;16.942;2023-02-28T15:18:39;18.53;;;4.97;;
55815;SDS011;41744;52.404;16.942;2023-02-28T15:21:07;12.67;;;4.77;;
55815;SDS011;41744;52.404;16.942;2023-02-28T15:23:36;11.83;;;4.87;;
55815;SDS011;41744;52.404;16.942;2023-02-28T15:26:03;12.70;;;4.83;;
55815;SDS011;41744;52.404;16.942;2023-02-28T15:28:30;10.37;;;4.13;;
55815;SDS011;41744;52.404;16.942;2023-02-28T15:31:01;12.83;;;4.63;;
55815;SDS011;41744;52.404;16.942;2023-02-28T15:33:32;12.70;;;4.70;;
55815;SDS011;41744;52.404;16.942;2023-02-28T15:36:06;11.53;;;4.40;;
55815;SDS011;41744;52.404;16.942;2023-02-28T15:38:33;9.27;;;4.37;;
55815;SDS011;41744;52.404;16.942;2023-02-28T15:41:00;10.07;;;4.47;;
55815;SDS011;41744;52.404;16.942;2023-02-28T15:43:27;11.90;;;4.80;;
55815;SDS011;41744;52.404;16.942;2023-02-28T15:51:17;14.53;;;4.80;;
55815;SDS011;41744;52.404;16.942;2023-02-28T15:56:17;11.73;;;4.90;;
55815;SDS011;41744;52.404;16.942;2023-02-28T15:58:46;10.17;;;4.37;;
55815;SDS011;41744;52.404;16.942;2023-02-28T16:01:19;15.97;;;5.00;;
55815;SDS011;41744;52.404;16.942;2023-02-28T16:03:48;13.80;;;5.80;;
55815;SDS011;41744;52.404;16.942;2023-02-28T16:07:15;14.00;;;5.20;;
55815;SDS011;41744;52.404;16.942;2023-02-28T16:09:11;13.57;;;5.23;;
55815;SDS011;41744;52.404;16.942;2023-02-28T16:11:39;15.50;;;5.30;;
55815;SDS011;41744;52.404;16.942;2023-02-28T16:14:07;14.17;;;5.77;;
55815;SDS011;41744;52.404;16.942;2023-02-28T16:16:41;15.13;;;5.33;;
55815;SDS011;41744;52.404;16.942;2023-02-28T16:19:08;14.77;;;6.07;;
55815;SDS011;41744;52.404;16.942;2023-02-28T16:21:34;23.20;;;6.00;;
55815;SDS011;41744;52.404;16.942;2023-02-28T16:24:00;13.33;;;4.93;;
55815;SDS011;41744;52.404;16.942;2023-02-28T16:26:26;20.77;;;6.43;;
55815;SDS011;41744;52.404;16.942;2023-02-28T16:28:53;12.40;;;5.40;;
55815;SDS011;41744;52.404;16.942;2023-02-28T16:31:20;18.13;;;5.90;;
55815;SDS011;41744;52.404;16.942;2023-02-28T16:33:46;15.80;;;5.30;;